Всё
Vereeniging Airport (Vereeniging, South Africa) FAVV Погода
|
Vereeniging, South Africa (FAVV)
Безоблачно
Тихий ветер |
|
9 °C |
There is no TAF data available at FAVV or any nearby airports.
Недавняя история METAR для FAVV
| Date | Time (SAST) | Flight Rules | Wind Dir. | Speed | Type | Height AGL (ft) | Visibility | Temp (°C) | Temp (°F) | Dew Point (°C) | Dew Point (°F) | Rel. Humid. | Pressure | Density Altitude | Remarks |
|---|---|---|---|---|---|---|---|---|---|---|---|---|---|---|---|
| 06-май | 04:00 | n/a | 230° | 3 kt | Missing | 9° | 48° | 7° | 44° | 87% | 1016 mb | 5,006 ft | |||
| 06-май | 03:00 | n/a | 210° | 3 kt | Missing | 9° | 48° | 8° | 46° | 93% | 1016 mb | 5,006 ft | |||
| 06-май | 02:00 | n/a | 230° | 2 kt | Missing | 9° | 48° | 8° | 46° | 93% | 1016 mb | 5,006 ft | |||
| 06-май | 01:00 | n/a | 360° | 7 kt | Missing | 9° | 48° | 8° | 46° | 93% | 1016 mb | 5,006 ft | |||
| 06-май | 00:00 | n/a | 200° | 2 kt | Missing | 9° | 48° | 8° | 46° | 93% | 1018 mb | 4,947 ft | |||
| 05-май | 23:00 | n/a | 200° | 5 kt | Missing | 10° | 50° | 8° | 46° | 87% | 1018 mb | 5,067 ft | |||
| 05-май | 22:00 | n/a | 220° | 6 kt | Missing | 11° | 51° | 8° | 46° | 82% | 1018 mb | 5,187 ft | |||
| 05-май | 21:00 | n/a | 240° | 2 kt | Missing | 13° | 55° | 11° | 51° | 88% | 1017 mb | 5,456 ft | |||
| 05-май | 20:00 | n/a | 210° | 5 kt | Missing | 13° | 55° | 12° | 53° | 94% | 1016 mb | 5,486 ft | |||
| 05-май | 19:00 | n/a | 220° | 6 kt | Missing | 15° | 59° | 13° | 55° | 88% | 1016 mb | 5,726 ft | |||
| 05-май | 18:00 | n/a | 290° | 5 kt | Missing | 15° | 59° | 13° | 55° | 88% | 1013 mb | 5,815 ft | |||
| 05-май | 17:00 | n/a | 300° | 10 kt | Missing | 15° | 59° | 13° | 55° | 88% | 1014 mb | 5,785 ft | |||
| gap in available data | |||||||||||||||
| 05-май | 15:00 | n/a | 300° | 3 kt | Missing | 14° | 57° | 14° | 57° | 100% | 1015 mb | 5,635 ft | |||
| 05-май | 14:00 | n/a | 270° | 3 kt | Missing | 13° | 55° | 13° | 55° | 100% | 1017 mb | 5,456 ft | |||
| 05-май | 13:00 | n/a | 170° | 6 kt | Missing | 14° | 57° | 14° | 57° | 100% | 1017 mb | 5,576 ft | |||
| 05-май | 12:00 | n/a | 280° | 7 kt | Missing | 16° | 60° | 15° | 59° | 94% | 1018 mb | 5,787 ft | |||
| 05-май | 11:00 | n/a | 310° | 13 kt | Missing | 18° | 64° | 14° | 57° | 77% | 1017 mb | 6,056 ft | |||
| 05-май | 10:00 | n/a | 300° | 17 kt | Missing | 21° | 69° | 14° | 57° | 64% | 1018 mb | 6,387 ft | Wind gusting to 27 KT | ||
| gap in available data | |||||||||||||||
| 05-май | 02:00 | n/a | 280° | 1 kt | Missing | 14° | 57° | 13° | 55° | 94% | 1020 mb | 5,488 ft | |||
| gap in available data | |||||||||||||||
| 04-май | 23:00 | n/a | 240° | 2 kt | Missing | 16° | 60° | 13° | 55° | 82% | 1022 mb | 5,669 ft | |||
| gap in available data | |||||||||||||||
| 03-май | 12:00 | n/a | 280° | 6 kt | Missing | 24° | 75° | 7° | 44° | 34% | 1028 mb | 6,452 ft | |||
| 03-май | 11:00 | n/a | 230° | 5 kt | Missing | 22° | 71° | 10° | 50° | 46% | 1028 mb | 6,212 ft | |||
| 03-май | 10:00 | n/a | 10° | 3 kt | Missing | 20° | 68° | 11° | 51° | 56% | 1029 mb | 5,942 ft | |||
| 03-май | 09:00 | n/a | 360° | 3 kt | Missing | 17° | 62° | 11° | 51° | 68% | 1029 mb | 5,582 ft | |||
Вход
| Ваш браузер не поддерживается.. обновите веб-браузер |
